createdAt,value
2022-09-21T00:01:41.273Z,102032.88
2022-09-21T00:04:10.839Z,102023.69
2022-09-21T00:06:39.451Z,102028.94
2022-09-21T00:09:09.635Z,102025.28
2022-09-21T00:11:39.722Z,102019.00
2022-09-21T00:14:12.309Z,102012.47
2022-09-21T00:16:42.330Z,102026.69
2022-09-21T00:19:12.087Z,102021.63
2022-09-21T00:21:42.544Z,102023.66
2022-09-21T00:24:13.183Z,102022.69
2022-09-21T00:26:41.638Z,102020.13
2022-09-21T00:29:11.747Z,102021.84
2022-09-21T00:31:40.390Z,102023.00
2022-09-21T00:34:09.185Z,102021.09
2022-09-21T00:36:37.890Z,102020.13
2022-09-21T00:39:06.288Z,102029.59
2022-09-21T00:41:36.476Z,102023.09
2022-09-21T00:44:33.154Z,102022.34
2022-09-21T00:47:08.997Z,102017.03
2022-09-21T00:49:38.487Z,102018.72
2022-09-21T00:52:08.821Z,102009.16
2022-09-21T00:54:42.786Z,102008.31
2022-09-21T00:57:14.949Z,102010.97
2022-09-21T00:59:46.577Z,102017.47
2022-09-21T01:02:16.159Z,102012.78
2022-09-21T01:04:45.677Z,102006.38
2022-09-21T01:07:20.683Z,102010.13
2022-09-21T01:09:53.464Z,102002.75
2022-09-21T01:12:40.683Z,102009.28
2022-09-21T01:15:30.789Z,102004.91
2022-09-21T01:18:09.893Z,101995.22
2022-09-21T01:21:14.152Z,101999.38
2022-09-21T01:24:08.928Z,101997.69
2022-09-21T01:27:06.448Z,101987.66
2022-09-21T01:29:45.032Z,101991.78
2022-09-21T01:32:18.400Z,101996.38
2022-09-21T01:34:51.996Z,101987.34
2022-09-21T01:37:24.554Z,101993.59
2022-09-21T01:39:57.563Z,101986.56
2022-09-21T01:42:29.203Z,101985.22
2022-09-21T01:45:03.260Z,101983.75
2022-09-21T01:47:33.239Z,101980.38
2022-09-21T01:50:04.610Z,101987.72
2022-09-21T01:52:39.858Z,101986.63
2022-09-21T01:55:15.322Z,101984.09
2022-09-21T01:57:51.040Z,101969.19
2022-09-21T02:00:21.428Z,101970.78
2022-09-21T02:02:52.779Z,101971.75
2022-09-21T02:05:25.123Z,101964.75
2022-09-21T02:07:54.896Z,101958.69
2022-09-21T02:10:30.177Z,101955.19
2022-09-21T02:13:05.819Z,101952.19
2022-09-21T02:15:50.189Z,101949.53
2022-09-21T02:18:31.415Z,101948.88
2022-09-21T02:21:02.937Z,101948.56
2022-09-21T02:23:44.111Z,101932.09
2022-09-21T02:26:17.441Z,101945.72
2022-09-21T02:28:53.622Z,101936.91
2022-09-21T02:31:32.121Z,101933.53
2022-09-21T02:34:05.993Z,101932.03
2022-09-21T02:36:43.524Z,101938.22
2022-09-21T02:39:17.539Z,101932.44
2022-09-21T02:41:56.142Z,101930.41
2022-09-21T02:44:34.467Z,101931.09
2022-09-21T02:47:11.028Z,101934.94
2022-09-21T02:49:44.418Z,101928.97
2022-09-21T02:52:16.585Z,101933.06
2022-09-21T02:54:48.992Z,101936.56
2022-09-21T02:57:19.857Z,101934.09
2022-09-21T02:59:48.374Z,101928.78
2022-09-21T03:02:18.547Z,101926.47
2022-09-21T03:04:49.321Z,101919.91
2022-09-21T03:07:18.883Z,101918.22
2022-09-21T03:09:48.866Z,101917.34
2022-09-21T03:12:17.230Z,101915.66
2022-09-21T03:14:45.521Z,101908.13
2022-09-21T03:17:14.101Z,101915.25
2022-09-21T03:19:44.144Z,101919.81
2022-09-21T03:22:12.644Z,101919.31
2022-09-21T03:24:46.946Z,101912.41
2022-09-21T03:27:16.076Z,101912.41
2022-09-21T03:29:44.621Z,101915.59
2022-09-21T03:32:14.601Z,101917.94
2022-09-21T03:34:44.620Z,101916.69
2022-09-21T03:37:13.512Z,101921.69
2022-09-21T03:39:43.004Z,101918.72
2022-09-21T03:42:13.476Z,101925.19
2022-09-21T03:44:43.285Z,101914.25
2022-09-21T03:47:11.845Z,101910.97
2022-09-21T03:49:40.452Z,101913.94
2022-09-21T03:52:10.377Z,101908.94
2022-09-21T03:54:38.979Z,101910.47
2022-09-21T03:57:08.796Z,101908.91
2022-09-21T03:59:37.193Z,101911.41
2022-09-21T04:02:05.929Z,101910.88
2022-09-21T04:05:23.393Z,101905.25
2022-09-21T04:07:53.625Z,101908.16
2022-09-21T04:10:27.435Z,101905.69
2022-09-21T04:13:01.335Z,101907.06
2022-09-21T04:15:31.795Z,101905.78
2022-09-21T04:18:00.902Z,101907.28
2022-09-21T04:20:29.309Z,101911.44
2022-09-21T04:23:00.196Z,101904.44
2022-09-21T04:25:28.917Z,101914.22
2022-09-21T04:27:57.310Z,101909.22
2022-09-21T04:30:25.962Z,101914.50
2022-09-21T04:32:54.353Z,101921.50
2022-09-21T04:35:22.775Z,101923.13
2022-09-21T04:37:51.535Z,101921.84
2022-09-21T04:40:23.527Z,101921.75
2022-09-21T04:42:54.897Z,101925.47
2022-09-21T04:45:24.271Z,101920.25
2022-09-21T04:47:52.696Z,101926.19
2022-09-21T04:50:21.292Z,101918.50
2022-09-21T04:52:49.833Z,101923.06
2022-09-21T04:55:18.384Z,101919.34
2022-09-21T04:57:48.488Z,101918.41
2022-09-21T05:00:17.569Z,101929.63
2022-09-21T05:02:45.911Z,101924.97
2022-09-21T05:05:14.860Z,101917.78
2022-09-21T05:07:43.331Z,101919.34
2022-09-21T05:10:11.952Z,101924.66
2022-09-21T05:12:42.454Z,101922.97
2022-09-21T05:15:13.044Z,101924.44
2022-09-21T05:17:42.414Z,101923.50
2022-09-21T05:20:12.403Z,101927.00
2022-09-21T05:22:41.371Z,101925.31
2022-09-21T05:25:11.541Z,101927.09
2022-09-21T05:27:40.031Z,101921.69
2022-09-21T05:30:11.131Z,101922.66
2022-09-21T05:32:49.428Z,101928.16
2022-09-21T05:35:31.993Z,101925.81
2022-09-21T05:38:05.903Z,101926.25
2022-09-21T05:40:35.477Z,101923.50
2022-09-21T05:43:05.296Z,101920.72
2022-09-21T05:45:34.961Z,101920.63
2022-09-21T05:48:14.014Z,101926.25
2022-09-21T05:50:57.906Z,101917.47
2022-09-21T05:53:47.704Z,101917.34
2022-09-21T05:56:32.403Z,101915.72
2022-09-21T05:59:09.923Z,101920.19
2022-09-21T06:01:51.360Z,101912.34
2022-09-21T06:04:22.349Z,101911.38
2022-09-21T06:06:50.915Z,101906.53
2022-09-21T06:09:20.929Z,101913.53
2022-09-21T06:11:49.872Z,101907.13
2022-09-21T06:14:24.882Z,101908.63
2022-09-21T06:16:54.410Z,101908.72
2022-09-21T06:19:24.701Z,101918.50
2022-09-21T06:21:53.727Z,101906.72
2022-09-21T06:24:24.100Z,101912.97
2022-09-21T06:26:53.776Z,101909.25
2022-09-21T06:29:23.921Z,101908.63
2022-09-21T06:31:52.696Z,101912.75
2022-09-21T06:34:22.008Z,101905.31
2022-09-21T06:36:51.730Z,101903.44
2022-09-21T06:39:20.058Z,101903.09
2022-09-21T06:41:48.477Z,101908.50
2022-09-21T06:44:16.743Z,101910.09
2022-09-21T06:46:45.149Z,101897.34
2022-09-21T06:49:13.388Z,101897.75
2022-09-21T06:51:43.293Z,101905.72
2022-09-21T06:54:13.713Z,101900.31
2022-09-21T06:56:43.595Z,101898.16
2022-09-21T06:59:12.063Z,101902.94
2022-09-21T07:01:40.731Z,101901.97
2022-09-21T07:04:09.632Z,101901.66
2022-09-21T07:06:38.066Z,101896.84
2022-09-21T07:11:57.094Z,101888.00
2022-09-21T07:14:25.517Z,101880.75
2022-09-21T07:16:54.733Z,101877.88
2022-09-21T07:19:23.729Z,101879.56
2022-09-21T07:21:54.323Z,101874.88
2022-09-21T07:24:22.722Z,101875.91
2022-09-21T07:26:53.815Z,101867.06
2022-09-21T07:29:24.140Z,101872.06
2022-09-21T07:31:53.234Z,101870.97
2022-09-21T07:34:21.863Z,101860.31
2022-09-21T07:36:50.645Z,101851.63
2022-09-21T07:39:18.893Z,101869.59
2022-09-21T07:41:48.529Z,101856.06
2022-09-21T07:44:17.182Z,101856.94
2022-09-21T07:46:49.550Z,101859.09
2022-09-21T07:49:18.230Z,101855.72
2022-09-21T07:51:46.769Z,101860.44
2022-09-21T07:54:16.232Z,101861.06
2022-09-21T07:57:05.177Z,101854.16
2022-09-21T07:59:33.800Z,101851.31
2022-09-21T08:02:06.499Z,101845.16
2022-09-21T08:04:35.109Z,101847.22
2022-09-21T08:07:04.124Z,101845.16
2022-09-21T08:09:33.115Z,101838.16
2022-09-21T08:12:04.542Z,101840.47
2022-09-21T08:14:38.929Z,101837.06
2022-09-21T08:17:13.042Z,101834.66
2022-09-21T08:19:41.425Z,101835.91
2022-09-21T08:22:10.790Z,101826.69
2022-09-21T08:24:40.593Z,101826.22
2022-09-21T08:27:09.263Z,101828.50
2022-09-21T08:29:37.702Z,101818.94
2022-09-21T08:32:06.146Z,101826.84
2022-09-21T08:34:36.417Z,101820.53
2022-09-21T08:37:05.230Z,101817.75
2022-09-21T08:39:33.972Z,101814.84
2022-09-21T08:42:17.417Z,101812.75
2022-09-21T08:44:52.323Z,101812.66
2022-09-21T08:47:26.662Z,101811.44
2022-09-21T08:50:01.572Z,101812.53
2022-09-21T08:52:30.140Z,101808.03
2022-09-21T08:55:03.520Z,101807.53
2022-09-21T08:57:34.664Z,101818.50
2022-09-21T09:00:10.033Z,101807.38
2022-09-21T09:03:09.750Z,101807.19
2022-09-21T09:05:49.954Z,101808.41
2022-09-21T09:08:56.044Z,101807.19
2022-09-21T09:11:39.006Z,101812.47
2022-09-21T09:14:23.880Z,101810.44
2022-09-21T09:17:04.653Z,101800.34
2022-09-21T09:19:40.791Z,101808.25
2022-09-21T09:22:17.535Z,101811.97
2022-09-21T09:24:51.570Z,101817.56
2022-09-21T09:27:24.170Z,101805.28
2022-09-21T09:30:03.248Z,101807.78
2022-09-21T09:32:41.696Z,101805.38
2022-09-21T09:35:22.043Z,101798.53
2022-09-21T09:37:58.495Z,101804.72
2022-09-21T09:40:57.986Z,101795.88
2022-09-21T09:43:41.127Z,101790.59
2022-09-21T09:46:16.175Z,101790.03
2022-09-21T09:49:11.988Z,101790.00
2022-09-21T09:51:41.156Z,101786.88
2022-09-21T09:54:16.345Z,101786.47
2022-09-21T09:56:45.695Z,101786.25
2022-09-21T09:59:25.105Z,101798.19
2022-09-21T10:02:02.439Z,101804.53
2022-09-21T10:04:31.867Z,101779.81
2022-09-21T10:07:01.492Z,101785.66
2022-09-21T10:09:32.746Z,101774.16
2022-09-21T10:12:09.533Z,101770.25
2022-09-21T10:14:39.267Z,101771.16
2022-09-21T10:17:09.978Z,101768.03
2022-09-21T10:19:40.677Z,101772.75
2022-09-21T10:22:18.832Z,101765.56
2022-09-21T10:24:53.336Z,101767.88
2022-09-21T10:27:27.051Z,101773.78
2022-09-21T10:29:55.539Z,101757.47
2022-09-21T10:32:26.572Z,101766.81
2022-09-21T10:35:20.492Z,101761.84
2022-09-21T10:37:53.946Z,101750.19
2022-09-21T10:40:32.139Z,101753.03
2022-09-21T10:43:02.452Z,101749.22
2022-09-21T10:45:32.790Z,101740.41
2022-09-21T10:48:10.488Z,101743.81
2022-09-21T10:50:41.192Z,101743.66
2022-09-21T10:53:15.423Z,101742.97
2022-09-21T10:56:11.747Z,101738.31
2022-09-21T10:59:14.095Z,101739.97
2022-09-21T11:01:48.851Z,101747.59
2022-09-21T11:04:25.644Z,101746.47
2022-09-21T11:07:00.499Z,101743.25
2022-09-21T11:09:36.802Z,101740.56
2022-09-21T11:12:25.337Z,101734.94
2022-09-21T11:15:00.607Z,101733.81
2022-09-21T11:17:38.043Z,101729.19
2022-09-21T11:20:21.251Z,101730.41
2022-09-21T11:22:59.477Z,101722.47
2022-09-21T11:25:37.028Z,101717.31
2022-09-21T11:28:17.805Z,101718.44
2022-09-21T11:31:03.770Z,101711.13
2022-09-21T11:33:46.290Z,101711.28
2022-09-21T11:36:24.417Z,101717.47
2022-09-21T11:39:02.513Z,101698.72
2022-09-21T11:41:47.065Z,101698.69
2022-09-21T11:44:29.917Z,101694.00
2022-09-21T11:47:07.419Z,101699.94
2022-09-21T11:50:13.095Z,101702.66
2022-09-21T11:52:56.308Z,101701.94
2022-09-21T11:55:49.603Z,101693.75
2022-09-21T11:58:28.749Z,101691.06
2022-09-21T12:01:10.691Z,101676.47
2022-09-21T12:03:51.311Z,101677.94
2022-09-21T12:06:35.318Z,101674.06
2022-09-21T12:09:26.662Z,101672.84
2022-09-21T12:12:01.343Z,101677.72
2022-09-21T12:14:50.380Z,101682.44
2022-09-21T12:17:30.843Z,101672.78
2022-09-21T12:20:08.206Z,101682.16
2022-09-21T12:22:40.669Z,101683.72
2022-09-21T12:25:18.663Z,101685.44
2022-09-21T12:27:52.244Z,101678.94
2022-09-21T12:30:23.364Z,101679.66
2022-09-21T12:32:58.982Z,101676.69
2022-09-21T12:35:34.675Z,101668.25
2022-09-21T12:38:10.816Z,101671.78
2022-09-21T12:40:47.509Z,101663.03
2022-09-21T12:43:30.016Z,101654.59
2022-09-21T12:46:03.113Z,101651.91
2022-09-21T12:48:39.603Z,101644.16
2022-09-21T12:51:15.807Z,101656.94
2022-09-21T12:53:50.885Z,101645.56
2022-09-21T12:56:30.042Z,101654.16
2022-09-21T12:59:12.220Z,101651.19
2022-09-21T13:01:47.280Z,101657.22
2022-09-21T13:04:41.932Z,101657.94
2022-09-21T13:07:34.430Z,101651.75
2022-09-21T13:10:15.245Z,101645.56
2022-09-21T13:12:46.299Z,101647.16
2022-09-21T13:15:20.096Z,101638.22
2022-09-21T13:18:02.768Z,101633.50
2022-09-21T13:20:40.076Z,101633.59
2022-09-21T13:23:18.120Z,101631.16
2022-09-21T13:25:51.808Z,101636.00
2022-09-21T13:28:24.064Z,101628.97
2022-09-21T13:31:41.146Z,101634.22
2022-09-21T13:34:26.325Z,101625.63
2022-09-21T13:37:34.215Z,101636.75
2022-09-21T13:40:42.061Z,101625.78
2022-09-21T13:43:48.465Z,101622.97
2022-09-21T13:46:56.021Z,101622.97
2022-09-21T13:49:54.868Z,101615.78
2022-09-21T13:52:33.881Z,101624.91
2022-09-21T13:55:05.665Z,101628.13
2022-09-21T13:57:40.573Z,101615.34
2022-09-21T14:00:41.719Z,101617.88
2022-09-21T14:03:26.084Z,101614.22
2022-09-21T14:05:57.715Z,101612.53
2022-09-21T14:08:31.808Z,101611.25
2022-09-21T14:11:03.814Z,101603.09
2022-09-21T14:13:36.153Z,101611.94
2022-09-21T14:16:45.944Z,101612.25
2022-09-21T14:20:03.618Z,101612.69
2022-09-21T14:23:11.746Z,101603.53
2022-09-21T14:25:53.478Z,101600.88
2022-09-21T14:28:36.721Z,101597.88
2022-09-21T14:31:20.754Z,101593.28
2022-09-21T14:33:53.686Z,101600.72
2022-09-21T14:36:29.658Z,101586.38
2022-09-21T14:39:04.924Z,101587.47
2022-09-21T14:41:39.819Z,101584.06
2022-09-21T14:44:19.254Z,101571.66
2022-09-21T14:47:13.192Z,101570.69
2022-09-21T14:49:54.909Z,101571.19
2022-09-21T14:52:34.627Z,101579.72
2022-09-21T14:55:18.101Z,101537.97
2022-09-21T14:58:08.366Z,101518.66
2022-09-21T15:00:43.004Z,101518.91
2022-09-21T15:03:50.761Z,101506.28
2022-09-21T15:06:43.620Z,101491.56
2022-09-21T15:09:49.425Z,101499.06
2022-09-21T15:12:25.444Z,101507.31
2022-09-21T15:15:02.274Z,101508.66
2022-09-21T15:17:32.642Z,101512.44
2022-09-21T15:20:02.291Z,101517.69
2022-09-21T15:22:32.806Z,101522.84
2022-09-21T15:25:06.232Z,101509.41
2022-09-21T15:27:38.124Z,101511.25
2022-09-21T15:30:08.309Z,101515.81
2022-09-21T15:32:40.621Z,101501.16
2022-09-21T15:35:20.046Z,101499.41
2022-09-21T15:37:50.364Z,101513.22
2022-09-21T15:40:21.951Z,101506.50
2022-09-21T15:43:04.929Z,101506.06
2022-09-21T15:45:38.855Z,101506.81
2022-09-21T15:48:13.951Z,101502.91
2022-09-21T15:50:46.419Z,101499.16
2022-09-21T15:53:23.135Z,101499.63
2022-09-21T15:55:52.533Z,101506.97
2022-09-21T15:58:32.238Z,101492.59
2022-09-21T16:01:01.565Z,101480.72
2022-09-21T16:03:30.841Z,101468.97
2022-09-21T16:06:00.948Z,101467.56
2022-09-21T16:08:34.086Z,101480.13
2022-09-21T16:11:23.478Z,101476.81
2022-09-21T16:14:21.444Z,101481.19
2022-09-21T16:17:28.111Z,101479.28
2022-09-21T16:20:20.000Z,101469.63
2022-09-21T16:22:50.828Z,101470.16
2022-09-21T16:25:38.530Z,101460.38
2022-09-21T16:28:29.573Z,101442.34
2022-09-21T16:31:00.658Z,101433.88
2022-09-21T16:33:58.441Z,101427.09
2022-09-21T16:36:40.875Z,101419.53
2022-09-21T16:39:15.793Z,101428.88
2022-09-21T16:41:56.247Z,101418.06
2022-09-21T16:44:26.914Z,101419.97
2022-09-21T16:47:02.459Z,101420.00
2022-09-21T16:49:35.287Z,101417.28
2022-09-21T16:52:04.489Z,101414.81
2022-09-21T16:54:33.213Z,101420.75
2022-09-21T16:57:03.870Z,101421.97
2022-09-21T16:59:33.539Z,101410.97
2022-09-21T17:02:05.162Z,101406.25
2022-09-21T17:04:35.883Z,101412.88
2022-09-21T17:07:06.424Z,101407.44
2022-09-21T17:09:38.672Z,101402.25
2022-09-21T17:12:08.988Z,101396.66
2022-09-21T17:14:41.914Z,101394.28
2022-09-21T17:17:18.638Z,101406.25
2022-09-21T17:19:50.051Z,101403.16
2022-09-21T17:22:19.230Z,101393.91
2022-09-21T17:24:51.807Z,101396.28
2022-09-21T17:27:22.962Z,101396.34
2022-09-21T17:29:54.149Z,101396.31
2022-09-21T17:32:25.835Z,101401.59
2022-09-21T17:35:10.904Z,101407.63
2022-09-21T17:37:39.438Z,101403.28
2022-09-21T17:40:11.161Z,101411.13
2022-09-21T17:42:42.352Z,101415.63
2022-09-21T17:45:21.242Z,101401.16
2022-09-21T17:47:52.966Z,101410.63
2022-09-21T17:50:27.584Z,101414.56
2022-09-21T17:53:15.239Z,101402.59
2022-09-21T17:55:50.175Z,101398.44
2022-09-21T17:58:41.956Z,101409.13
2022-09-21T18:01:20.457Z,101410.69
2022-09-21T18:03:51.492Z,101395.66
2022-09-21T18:06:20.411Z,101401.56
2022-09-21T18:08:50.868Z,101407.22
2022-09-21T18:11:41.947Z,101410.16
2022-09-21T18:14:17.653Z,101408.91
2022-09-21T18:16:54.365Z,101419.00
2022-09-21T18:19:38.530Z,101417.50
2022-09-21T18:22:17.894Z,101414.94
2022-09-21T18:24:47.706Z,101424.09
2022-09-21T18:27:20.333Z,101432.22
2022-09-21T18:29:49.222Z,101436.28
2022-09-21T18:32:46.518Z,101447.91
2022-09-21T18:35:31.606Z,101432.88
2022-09-21T18:38:13.369Z,101437.34
2022-09-21T18:40:51.745Z,101439.34
2022-09-21T18:43:30.263Z,101440.16
2022-09-21T18:46:03.450Z,101435.53
2022-09-21T18:48:53.314Z,101438.16
2022-09-21T18:51:41.028Z,101437.91
2022-09-21T18:54:25.830Z,101434.63
2022-09-21T18:56:56.196Z,101440.56
2022-09-21T18:59:31.005Z,101441.50
2022-09-21T19:02:00.817Z,101438.53
2022-09-21T19:04:30.282Z,101436.56
2022-09-21T19:07:08.687Z,101447.78
2022-09-21T19:09:46.827Z,101444.56
2022-09-21T19:12:22.011Z,101442.59
2022-09-21T19:15:01.921Z,101438.09
2022-09-21T19:17:42.800Z,101444.09
2022-09-21T19:20:33.639Z,101433.59
2022-09-21T19:23:14.793Z,101437.94
2022-09-21T19:25:49.506Z,101435.84
2022-09-21T19:28:54.923Z,101433.84
2022-09-21T19:31:23.970Z,101437.34
2022-09-21T19:33:52.635Z,101421.66
2022-09-21T19:36:23.780Z,101432.72
2022-09-21T19:38:55.264Z,101439.59
2022-09-21T19:41:43.506Z,101442.25
2022-09-21T19:44:31.355Z,101439.00
2022-09-21T19:47:07.703Z,101436.72
2022-09-21T19:49:45.216Z,101442.06
2022-09-21T19:52:17.996Z,101441.06
2022-09-21T19:55:02.173Z,101444.03
2022-09-21T19:57:48.816Z,101438.53
2022-09-21T20:00:19.134Z,101439.66
2022-09-21T20:03:01.365Z,101447.50
2022-09-21T20:05:40.866Z,101435.16
2022-09-21T20:08:18.325Z,101427.56
2022-09-21T20:11:03.260Z,101429.66
2022-09-21T20:13:54.786Z,101423.06
2022-09-21T20:16:45.323Z,101439.47
2022-09-21T20:19:31.200Z,101440.59
2022-09-21T20:22:05.049Z,101436.69
2022-09-21T20:24:41.896Z,101433.47
2022-09-21T20:27:23.030Z,101439.19
2022-09-21T20:29:51.687Z,101429.38
2022-09-21T20:32:21.983Z,101428.41
2022-09-21T20:34:50.460Z,101424.91
2022-09-21T20:37:19.583Z,101431.22
2022-09-21T20:39:47.993Z,101421.84
2022-09-21T20:42:23.705Z,101418.59
2022-09-21T20:44:52.621Z,101418.06
2022-09-21T20:47:22.100Z,101419.03
2022-09-21T20:49:51.045Z,101409.63
2022-09-21T20:52:20.266Z,101409.22
2022-09-21T20:54:49.683Z,101411.47
2022-09-21T20:57:20.669Z,101403.63
2022-09-21T20:59:49.680Z,101413.44
2022-09-21T21:02:18.360Z,101407.13
2022-09-21T21:04:47.021Z,101402.66
2022-09-21T21:07:15.683Z,101402.50
2022-09-21T21:09:44.111Z,101406.91
2022-09-21T21:12:13.345Z,101399.03
2022-09-21T21:14:43.724Z,101391.78
2022-09-21T21:17:12.076Z,101385.16
2022-09-21T21:19:40.580Z,101397.91
2022-09-21T21:22:09.603Z,101390.91
2022-09-21T21:24:44.284Z,101391.34
2022-09-21T21:27:16.482Z,101378.00
2022-09-21T21:29:47.664Z,101380.09
2022-09-21T21:32:17.049Z,101381.34
2022-09-21T21:34:47.895Z,101382.31
2022-09-21T21:37:23.224Z,101380.50
2022-09-21T21:39:55.281Z,101378.53
2022-09-21T21:42:26.735Z,101373.94
2022-09-21T21:44:57.777Z,101374.47
2022-09-21T21:47:40.184Z,101363.28
2022-09-21T21:50:29.450Z,101376.34
2022-09-21T21:53:03.769Z,101373.50
2022-09-21T21:55:32.297Z,101375.16
2022-09-21T21:58:01.080Z,101376.34
2022-09-21T22:00:30.952Z,101374.06
2022-09-21T22:02:59.437Z,101365.69
2022-09-21T22:05:28.051Z,101374.47
2022-09-21T22:07:56.732Z,101367.63
2022-09-21T22:10:25.700Z,101370.09
2022-09-21T22:12:58.144Z,101376.00
2022-09-21T22:15:26.664Z,101374.06
2022-09-21T22:17:57.232Z,101368.41
2022-09-21T22:20:26.142Z,101375.03
2022-09-21T22:22:54.900Z,101366.50
2022-09-21T22:25:23.464Z,101362.41
2022-09-21T22:27:52.174Z,101370.41
2022-09-21T22:30:20.476Z,101359.19
2022-09-21T22:32:49.368Z,101361.41
2022-09-21T22:35:19.484Z,101355.53
2022-09-21T22:37:47.900Z,101355.94
2022-09-21T22:40:16.953Z,101348.28
2022-09-21T22:42:47.556Z,101351.47
2022-09-21T22:45:16.547Z,101358.59
2022-09-21T22:47:45.038Z,101355.38
2022-09-21T22:50:13.554Z,101354.53
2022-09-21T22:52:43.296Z,101351.75
2022-09-21T22:55:11.829Z,101356.34
2022-09-21T22:57:40.127Z,101355.66
2022-09-21T23:00:10.437Z,101335.06
2022-09-21T23:02:39.874Z,101334.06
2022-09-21T23:05:11.111Z,101319.50
2022-09-21T23:07:40.787Z,101330.56
2022-09-21T23:10:13.954Z,101331.13
2022-09-21T23:12:44.388Z,101326.22
2022-09-21T23:15:13.029Z,101330.56
2022-09-21T23:17:41.569Z,101332.06
2022-09-21T23:20:11.248Z,101329.72
2022-09-21T23:22:42.974Z,101322.97
2022-09-21T23:25:13.150Z,101324.53
2022-09-21T23:27:41.420Z,101322.72
2022-09-21T23:30:11.160Z,101321.16
2022-09-21T23:32:39.652Z,101323.81
2022-09-21T23:35:08.730Z,101321.16
2022-09-21T23:37:37.204Z,101322.28
2022-09-21T23:40:06.752Z,101329.13
2022-09-21T23:42:36.747Z,101325.78
2022-09-21T23:45:05.378Z,101325.22
2022-09-21T23:47:33.691Z,101319.34
2022-09-21T23:50:02.535Z,101323.41
2022-09-21T23:52:31.593Z,101321.28
2022-09-21T23:55:00.634Z,101314.97
2022-09-21T23:57:30.234Z,101324.06
